메인 페이지
METAR-TAF:

METAR-TAF

공항 :

Gulfport, 미시시피, 미국

위도: 30-24-43N, 경도: 089-04-51W, 고도: 8m

현재 날씨관측

예보는 18분 전, 00:53시(UTC)에 발표되었습니다.
무풍
온도 31°C
습도 66%
기압 1015 hPa
시정: 16.1km
맑음

METAR: KGPT 150053Z 00000KT 10SM CLR 31/24 A2997 RMK AO2 LTG DSNT E SLP149 T03060239

시각: 20:11 (01:11 UTC)

예보

예보는 1 시간 51분 전, 23:20시(UTC)에 발표되었습니다.
예보 대상 시간: 15일 00시부터 15일 24시까지 (UTC)
남남서6kt
시정: 10km
고도 5000ft 상공 구름 조금
고도 11000ft 상공 구름 보통
15일 0900시부터 (UTC)
여러 방향의 바람 3kt
시정: 10km
고도 3000ft 상공 구름 조금
고도 11000ft 상공 구름 조금
15일 1700시부터 (UTC)
남남동6kt
시정: 10km
고도 3500ft 상공 구름 보통
고도 10000ft 상공 구름 많음
확률 30%
15일 18시부터 15일 24시까지 (UTC)
시정: 6.4km
고도 3000ft 상공 구름 많음, 적란운.
뇌우, 비

TAF: KGPT 142320Z 1500/1524 21006KT P6SM FEW050 SCT110 FM150900 VRB03KT P6SM FEW030 FEW110 FM151700 15006KT P6SM SCT035 BKN100 PROB30 1518/1524 4SM TSRA BKN030CB

4,000개 이상의 공항 관측 자료 및 예보 (METAR 및 TAF 보고).

지도상에서 검색 가능한 기상관측소가 노란 점과 빨간 점으로 표시되어 있습니다.

기상관측소 명을 보려면 표시 위로 마우스를 이동하세요.

날씨 관측과 예보를 보려면 클릭하세요.

지도 변경 : 확대하려면 엑스 표시가 있는 녹색 버튼, 축소하려면 빼기 표시가 있는 녹색 버튼, 다음 페이지의 지도를 보려면 녹색 화살표를 클릭하세요.


METAR-TAF: